Accueil
METAR-TAF:

METAR-TAF

Aéroports :

Aéroport d'Innsbruck

Innsbruck, Autriche

latitude: 47-16N, longitude: 011-21E, altitude: 581 m

Observation

Le bulletin a été fait il y a 34 minutes, à 00:50 UTC
Vent 3 kt de est/nord-est, variant entre nord et est/sud-est
Température 11°C
Humidité 82%
Pression 1031 hPa
Visibilité 10 km ou plus
Quelques nuages à une hauteur de 4600 ft
Nuages fragmentés à une hauteur de 7000 ft

METAR: LOWI 260050Z AUTO 06003KT 360V110 9999 FEW046 BKN070 11/08 Q1031

Heure: 03:24 (01:24 UTC)

Prévision

Le bulletin a été fait il y a 2 heures et 9 minutes, à 23:15 UTC
Prévision valable du 26 à 00 UTC au 26 à 24 UTC
Vent 5 kt de ouest
Visibilité 10 km ou plus
Quelques nuages à une hauteur de 6000 ft
Nuages fragmentés à une hauteur de 7000 ft
Temporairement
du 26 à 09 UTC au 26 à 18 UTC
Vent 10 kt de est

TAF: LOWI 252315Z 2600/2624 27005KT 9999 FEW060 BKN070 TX18/2613Z TN10/2604Z TEMPO 2609/2618 09010KT

Observations et prévisions météorologiques de plus de 4000 aéroports (messages METAR et TAF).

Les stations disponibles sont représentées par des disques jaunes et rouges sur la carte.

Passer la souris dessus pour voir le nom de la station.

Cliquer dessus pour voir les observations et prévisions météorologiques.

Pour changer de carte: cliquez sur les boutons verts avec une croix noire pour zoomer, sur le bouton vert avec un tiret pour effectuer un zoom arrière, ou sur les flèches vertes pour les cartes adjacentes.


METAR-TAF: